createdAt,value
2019-01-06T00:00:40.633Z,72.70
2019-01-06T00:03:24.120Z,73.20
2019-01-06T00:06:20.309Z,74.30
2019-01-06T00:09:22.720Z,74.90
2019-01-06T00:12:19.148Z,74.50
2019-01-06T00:15:09.261Z,74.60
2019-01-06T00:17:53.284Z,74.70
2019-01-06T00:20:58.668Z,74.80
2019-01-06T00:23:45.005Z,73.90
2019-01-06T00:26:44.347Z,72.10
2019-01-06T00:29:38.841Z,71.60
2019-01-06T00:32:25.041Z,71.00
2019-01-06T00:35:30.409Z,70.80
2019-01-06T00:38:16.776Z,69.70
2019-01-06T00:41:19.210Z,69.00
2019-01-06T00:44:05.143Z,68.70
2019-01-06T00:46:58.244Z,68.70
2019-01-06T00:49:48.640Z,68.70
2019-01-06T00:52:44.745Z,68.10
2019-01-06T00:55:41.668Z,68.30
2019-01-06T00:58:27.779Z,67.80
2019-01-06T01:01:13.696Z,68.10
2019-01-06T01:04:09.838Z,67.70
2019-01-06T01:06:56.052Z,67.60
2019-01-06T01:09:48.547Z,67.20
2019-01-06T01:12:41.644Z,67.00
2019-01-06T01:15:27.754Z,67.10
2019-01-06T01:18:14.406Z,66.80
2019-01-06T01:20:50.285Z,66.50
2019-01-06T01:23:36.474Z,66.60
2019-01-06T01:26:22.489Z,66.80
2019-01-06T01:29:08.496Z,66.70
2019-01-06T01:31:58.580Z,66.40
2019-01-06T01:34:53.201Z,66.70
2019-01-06T01:37:40.641Z,66.70
2019-01-06T01:40:30.316Z,66.80
2019-01-06T01:43:16.469Z,67.00
2019-01-06T01:46:02.321Z,67.20
2019-01-06T01:48:47.946Z,67.10
2019-01-06T01:51:35.377Z,67.10
2019-01-06T01:54:35.089Z,67.00
2019-01-06T01:57:34.496Z,66.80
2019-01-06T02:00:20.370Z,68.00
2019-01-06T02:03:13.757Z,67.10
2019-01-06T02:05:59.949Z,67.00
2019-01-06T02:08:50.692Z,66.60
2019-01-06T02:11:36.901Z,66.60
2019-01-06T02:14:23.731Z,66.30
2019-01-06T02:17:29.305Z,66.30
2019-01-06T02:20:25.666Z,66.10
2019-01-06T02:23:25.265Z,66.00
2019-01-06T02:26:12.812Z,66.00
2019-01-06T02:29:05.856Z,66.00
2019-01-06T02:31:59.413Z,65.90
2019-01-06T02:34:46.131Z,65.90
2019-01-06T02:37:28.731Z,65.70
2019-01-06T02:40:14.882Z,66.10
2019-01-06T02:43:00.831Z,66.20
2019-01-06T02:45:45.980Z,66.10
2019-01-06T02:48:39.473Z,66.20
2019-01-06T02:51:25.321Z,65.90
2019-01-06T02:54:12.826Z,66.30
2019-01-06T02:57:12.361Z,66.40
2019-01-06T03:00:08.897Z,66.30
2019-01-06T03:02:55.204Z,66.40
2019-01-06T03:05:48.377Z,66.60
2019-01-06T03:08:35.840Z,66.50
2019-01-06T03:11:38.679Z,66.80
2019-01-06T03:14:35.040Z,66.90
2019-01-06T03:17:21.065Z,67.00
2019-01-06T03:20:08.516Z,67.30
2019-01-06T03:22:54.613Z,67.50
2019-01-06T03:25:42.060Z,67.70
2019-01-06T03:28:29.560Z,68.00
2019-01-06T03:31:17.078Z,68.30
2019-01-06T03:34:11.312Z,68.60
2019-01-06T03:36:53.516Z,68.80
2019-01-06T03:39:44.022Z,68.90
2019-01-06T03:42:30.614Z,69.10
2019-01-06T03:45:18.114Z,69.30
2019-01-06T03:48:08.545Z,69.40
2019-01-06T03:50:54.414Z,69.40
2019-01-06T03:53:47.748Z,69.60
2019-01-06T03:56:34.097Z,69.80
2019-01-06T03:59:27.266Z,69.90
2019-01-06T04:02:20.764Z,70.20
2019-01-06T04:05:08.269Z,70.40
2019-01-06T04:08:10.922Z,70.30
2019-01-06T04:10:57.166Z,70.50
2019-01-06T04:13:44.623Z,70.50
2019-01-06T04:16:37.804Z,70.70
2019-01-06T04:19:23.892Z,70.80
2019-01-06T04:22:20.125Z,70.90
2019-01-06T04:25:10.468Z,70.90
2019-01-06T04:28:07.011Z,71.10
2019-01-06T04:30:54.496Z,70.90
2019-01-06T04:33:40.730Z,70.90
2019-01-06T04:36:46.229Z,70.90
2019-01-06T04:39:33.096Z,71.00
2019-01-06T04:42:20.607Z,71.00
2019-01-06T04:45:23.282Z,71.10
2019-01-06T04:48:10.772Z,71.20
2019-01-06T04:50:58.316Z,71.40
2019-01-06T04:53:44.203Z,71.60
2019-01-06T04:56:42.026Z,71.80
2019-01-06T04:59:28.249Z,71.70
2019-01-06T05:02:14.217Z,71.90
2019-01-06T05:05:13.586Z,71.70
2019-01-06T05:08:07.173Z,71.70
2019-01-06T05:11:01.093Z,71.90
2019-01-06T05:13:46.636Z,71.60
2019-01-06T05:16:36.909Z,71.60
2019-01-06T05:19:42.682Z,71.80
2019-01-06T05:22:35.970Z,71.80
2019-01-06T05:25:38.805Z,71.60
2019-01-06T05:28:26.258Z,71.60
2019-01-06T05:31:28.719Z,71.80
2019-01-06T05:34:19.545Z,71.50
2019-01-06T05:37:05.551Z,71.90
2019-01-06T05:39:51.417Z,71.70
2019-01-06T05:42:44.618Z,72.00
2019-01-06T05:45:40.747Z,72.00
2019-01-06T05:48:30.981Z,72.10
2019-01-06T05:51:27.272Z,72.00
2019-01-06T05:54:19.626Z,72.20
2019-01-06T05:57:09.719Z,72.00
2019-01-06T06:00:09.373Z,72.10
2019-01-06T06:02:59.885Z,72.20
2019-01-06T06:05:53.092Z,72.10
2019-01-06T06:08:46.512Z,72.10
2019-01-06T06:11:49.869Z,72.20
2019-01-06T06:14:46.274Z,72.50
2019-01-06T06:17:51.882Z,72.60
2019-01-06T06:20:45.310Z,72.90
2019-01-06T06:23:31.166Z,73.10
2019-01-06T06:26:17.237Z,73.30
2019-01-06T06:29:22.744Z,73.10
2019-01-06T06:32:28.416Z,73.50
2019-01-06T06:35:18.834Z,74.00
2019-01-06T06:38:11.280Z,74.00
2019-01-06T06:41:10.937Z,74.30
2019-01-06T06:44:10.592Z,74.40
2019-01-06T06:46:56.829Z,75.00
2019-01-06T06:49:59.222Z,75.10
2019-01-06T06:52:49.617Z,75.40
2019-01-06T06:55:49.305Z,75.30
2019-01-06T06:58:39.864Z,75.40
2019-01-06T07:02:09.937Z,75.50
2019-01-06T07:05:00.293Z,75.60
2019-01-06T07:07:46.592Z,75.80
2019-01-06T07:10:32.681Z,75.80
2019-01-06T07:13:18.670Z,75.70
2019-01-06T07:16:08.890Z,75.70
2019-01-06T07:18:55.342Z,75.70
2019-01-06T07:21:51.034Z,75.90
2019-01-06T07:24:37.405Z,75.80
2019-01-06T07:27:42.854Z,75.80
2019-01-06T07:30:31.288Z,75.80
2019-01-06T07:33:07.657Z,75.60
2019-01-06T07:36:05.891Z,75.30
2019-01-06T07:38:53.729Z,75.20
2019-01-06T07:41:37.432Z,74.60
2019-01-06T07:44:22.409Z,75.00
2019-01-06T07:47:08.536Z,75.10
2019-01-06T07:50:07.892Z,75.90
2019-01-06T07:52:55.341Z,75.00
2019-01-06T07:55:41.596Z,74.60
2019-01-06T07:58:27.685Z,74.70
2019-01-06T08:01:15.172Z,74.70
2019-01-06T08:04:14.608Z,73.80
2019-01-06T08:07:14.028Z,73.40
2019-01-06T08:10:10.246Z,72.90
2019-01-06T08:12:57.719Z,72.30
2019-01-06T08:15:53.953Z,72.40
2019-01-06T08:18:50.568Z,71.50
2019-01-06T08:21:47.227Z,71.60
2019-01-06T08:24:37.520Z,71.30
2019-01-06T08:27:31.493Z,71.30
2019-01-06T08:30:17.585Z,71.30
2019-01-06T08:33:05.129Z,70.90
2019-01-06T08:36:01.680Z,70.60
2019-01-06T08:38:47.553Z,70.10
2019-01-06T08:41:37.644Z,70.30
2019-01-06T08:44:34.099Z,69.60
2019-01-06T08:47:21.537Z,69.90
2019-01-06T08:50:27.248Z,69.10
2019-01-06T08:53:13.051Z,68.70
2019-01-06T08:56:06.630Z,68.30
2019-01-06T08:58:46.642Z,67.40
2019-01-06T09:01:32.936Z,68.10
2019-01-06T09:04:18.764Z,67.00
2019-01-06T09:07:14.953Z,66.80
2019-01-06T09:10:01.351Z,67.10
2019-01-06T09:12:47.420Z,67.20
2019-01-06T09:15:37.918Z,67.00
2019-01-06T09:18:23.928Z,66.40
2019-01-06T09:21:15.701Z,66.20
2019-01-06T09:24:01.602Z,66.10
2019-01-06T09:26:47.842Z,65.80
2019-01-06T09:29:35.285Z,66.50
2019-01-06T09:32:21.189Z,66.60
2019-01-06T09:35:20.202Z,65.50
2019-01-06T09:38:17.905Z,65.60
2019-01-06T09:41:04.283Z,65.20
2019-01-06T09:44:03.898Z,65.00
2019-01-06T09:47:09.486Z,65.20
2019-01-06T09:49:56.177Z,65.40
2019-01-06T09:52:49.681Z,64.90
2019-01-06T09:55:36.009Z,64.60
2019-01-06T09:58:35.518Z,64.10
2019-01-06T10:01:32.336Z,64.30
2019-01-06T10:04:18.723Z,64.30
2019-01-06T10:07:05.069Z,63.40
2019-01-06T10:09:50.692Z,64.40
2019-01-06T10:12:34.557Z,63.50
2019-01-06T10:15:21.164Z,62.50
2019-01-06T10:18:17.581Z,62.30
2019-01-06T10:21:17.074Z,62.70
2019-01-06T10:24:09.377Z,63.00
2019-01-06T10:27:04.210Z,62.80
2019-01-06T10:29:50.368Z,62.40
2019-01-06T10:32:46.773Z,61.80
2019-01-06T10:35:32.977Z,61.10
2019-01-06T10:38:18.828Z,61.50
2019-01-06T10:41:21.749Z,61.30
2019-01-06T10:44:18.084Z,61.40
2019-01-06T10:47:04.016Z,61.70
2019-01-06T10:49:54.730Z,59.80
2019-01-06T10:52:40.833Z,59.80
2019-01-06T10:55:26.837Z,58.30
2019-01-06T10:58:20.230Z,58.90
2019-01-06T11:01:10.676Z,58.30
2019-01-06T11:03:56.588Z,58.30
2019-01-06T11:06:44.113Z,57.50
2019-01-06T11:09:34.800Z,58.90
2019-01-06T11:12:21.344Z,57.90
2019-01-06T11:15:05.359Z,57.00
2019-01-06T11:18:02.386Z,58.00
2019-01-06T11:20:46.320Z,58.00
2019-01-06T11:23:48.997Z,57.80
2019-01-06T11:26:39.509Z,57.30
2019-01-06T11:29:32.977Z,57.00
2019-01-06T11:32:20.703Z,57.20
2019-01-06T11:35:08.241Z,57.10
2019-01-06T11:37:54.473Z,56.80
2019-01-06T11:40:40.445Z,56.90
2019-01-06T11:43:28.453Z,56.90
2019-01-06T11:46:14.346Z,56.60
2019-01-06T11:49:00.606Z,56.40
2019-01-06T11:52:06.133Z,56.70
2019-01-06T11:55:04.334Z,56.70
2019-01-06T11:57:50.312Z,57.00
2019-01-06T12:00:37.468Z,56.90
2019-01-06T12:03:27.927Z,57.10
2019-01-06T12:06:27.586Z,56.60
2019-01-06T12:09:13.856Z,57.10
2019-01-06T12:12:00.129Z,57.40
2019-01-06T12:14:47.772Z,57.20
2019-01-06T12:17:41.100Z,57.50
2019-01-06T12:20:27.400Z,57.80
2019-01-06T12:23:17.485Z,57.30
2019-01-06T12:26:03.616Z,57.60
2019-01-06T12:28:49.816Z,56.80
2019-01-06T12:31:43.224Z,56.90
2019-01-06T12:34:36.773Z,57.20
2019-01-06T12:37:33.393Z,57.30
2019-01-06T12:40:19.479Z,57.10
2019-01-06T12:43:12.998Z,57.40
2019-01-06T12:45:59.313Z,57.70
2019-01-06T12:48:45.705Z,57.20
2019-01-06T12:51:43.670Z,57.40
2019-01-06T12:54:28.901Z,57.20
2019-01-06T12:57:16.505Z,57.30
2019-01-06T13:00:19.129Z,57.10
2019-01-06T13:03:05.336Z,56.80
2019-01-06T13:06:03.419Z,56.60
2019-01-06T13:08:57.482Z,56.30
2019-01-06T13:11:44.846Z,56.50
2019-01-06T13:14:31.108Z,56.40
2019-01-06T13:17:30.552Z,57.20
2019-01-06T13:20:16.753Z,55.60
2019-01-06T13:23:13.019Z,55.80
2019-01-06T13:25:59.292Z,55.40
2019-01-06T13:28:45.388Z,56.50
2019-01-06T13:31:33.012Z,55.80
2019-01-06T13:34:19.441Z,55.50
2019-01-06T13:37:05.313Z,54.90
2019-01-06T13:39:52.844Z,54.80
2019-01-06T13:42:40.406Z,55.60
2019-01-06T13:45:31.517Z,54.90
2019-01-06T13:48:28.215Z,54.80
2019-01-06T13:51:16.200Z,54.50
2019-01-06T13:54:03.685Z,54.90
2019-01-06T13:56:50.520Z,55.10
2019-01-06T13:59:40.976Z,55.90
2019-01-06T14:02:34.500Z,55.70
2019-01-06T14:05:19.214Z,55.70
2019-01-06T14:08:19.180Z,54.80
2019-01-06T14:11:13.057Z,54.60
2019-01-06T14:14:03.860Z,54.40
2019-01-06T14:16:51.901Z,55.30
2019-01-06T14:19:49.462Z,55.80
2019-01-06T14:22:40.576Z,55.60
2019-01-06T14:25:32.608Z,53.30
2019-01-06T14:28:20.404Z,54.00
2019-01-06T14:31:07.653Z,53.60
2019-01-06T14:33:46.954Z,52.50
2019-01-06T14:36:37.699Z,52.50
2019-01-06T14:39:32.189Z,51.90
2019-01-06T14:42:29.445Z,51.90
2019-01-06T14:45:26.429Z,51.30
2019-01-06T14:48:13.840Z,51.90
2019-01-06T14:51:01.980Z,52.50
2019-01-06T14:53:48.998Z,52.40
2019-01-06T14:56:52.683Z,51.70
2019-01-06T14:59:39.493Z,51.80
2019-01-06T15:02:27.840Z,52.10
2019-01-06T15:05:12.861Z,52.30
2019-01-06T15:08:06.161Z,52.70
2019-01-06T15:10:52.574Z,52.40
2019-01-06T15:13:41.957Z,54.10
2019-01-06T15:16:29.571Z,53.90
2019-01-06T15:19:26.521Z,54.20
2019-01-06T15:22:20.437Z,54.40
2019-01-06T15:25:07.210Z,54.00
2019-01-06T15:27:58.319Z,54.50
2019-01-06T15:30:48.049Z,54.40
2019-01-06T15:33:35.056Z,54.90
2019-01-06T15:36:31.967Z,56.20
2019-01-06T15:39:19.385Z,56.20
2019-01-06T15:42:05.891Z,56.60
2019-01-06T15:44:55.198Z,56.20
2019-01-06T15:47:41.660Z,56.60
2019-01-06T15:50:41.991Z,56.60
2019-01-06T15:53:28.493Z,57.10
2019-01-06T15:56:25.132Z,57.20
2019-01-06T15:59:16.245Z,57.30
2019-01-06T16:02:13.806Z,57.40
2019-01-06T16:05:04.918Z,57.50
2019-01-06T16:07:51.421Z,57.90
2019-01-06T16:10:39.329Z,58.40
2019-01-06T16:13:32.619Z,58.90
2019-01-06T16:16:18.614Z,59.40
2019-01-06T16:19:06.343Z,60.20
2019-01-06T16:21:55.022Z,60.20
2019-01-06T16:24:44.664Z,60.60
2019-01-06T16:27:44.593Z,61.00
2019-01-06T16:30:36.017Z,61.30
2019-01-06T16:33:23.800Z,62.10
2019-01-06T16:36:11.168Z,62.20
2019-01-06T16:39:05.355Z,62.50
2019-01-06T16:41:59.232Z,62.60
2019-01-06T16:44:46.039Z,63.10
2019-01-06T16:47:33.541Z,63.20
2019-01-06T16:50:19.749Z,63.70
2019-01-06T16:53:11.390Z,64.00
2019-01-06T16:55:57.639Z,64.20
2019-01-06T16:58:45.080Z,64.40
2019-01-06T17:01:31.017Z,64.50
2019-01-06T17:04:36.752Z,64.90
2019-01-06T17:07:23.229Z,64.90
2019-01-06T17:10:09.119Z,65.30
2019-01-06T17:13:08.450Z,65.40
2019-01-06T17:16:13.913Z,65.70
2019-01-06T17:19:19.455Z,66.10
2019-01-06T17:22:05.648Z,66.30
2019-01-06T17:24:59.118Z,66.30
2019-01-06T17:27:45.182Z,66.40
2019-01-06T17:30:31.149Z,66.60
2019-01-06T17:33:32.291Z,66.80
2019-01-06T17:36:38.356Z,66.80
2019-01-06T17:39:36.468Z,66.80
2019-01-06T17:42:26.585Z,67.00
2019-01-06T17:45:29.284Z,67.10
2019-01-06T17:48:15.855Z,67.20
2019-01-06T17:51:03.714Z,67.30
2019-01-06T17:54:00.547Z,67.00
2019-01-06T17:56:46.775Z,67.30
2019-01-06T17:59:31.225Z,67.60
2019-01-06T18:02:18.883Z,67.40
2019-01-06T18:05:06.629Z,67.60
2019-01-06T18:07:54.212Z,67.80
2019-01-06T18:10:59.532Z,67.80
2019-01-06T18:13:52.826Z,67.90
2019-01-06T18:16:38.926Z,68.40
2019-01-06T18:19:29.393Z,68.30
2019-01-06T18:22:10.085Z,68.60
2019-01-06T18:25:06.582Z,68.70
2019-01-06T18:27:53.096Z,68.50
2019-01-06T18:30:40.601Z,68.60
2019-01-06T18:33:37.145Z,68.70
2019-01-06T18:36:35.430Z,68.80
2019-01-06T18:39:27.883Z,69.20
2019-01-06T18:42:16.042Z,69.10
2019-01-06T18:45:08.868Z,69.20
2019-01-06T18:47:39.089Z,69.30
2019-01-06T18:50:26.915Z,69.50
2019-01-06T18:53:14.544Z,69.80
2019-01-06T18:56:00.974Z,69.50
2019-01-06T18:58:48.885Z,69.80
2019-01-06T19:01:34.813Z,70.10
2019-01-06T19:04:37.574Z,70.00
2019-01-06T19:07:25.242Z,70.30
2019-01-06T19:10:11.712Z,70.40
2019-01-06T19:13:02.759Z,70.40
2019-01-06T19:15:49.135Z,70.40
2019-01-06T19:18:49.195Z,70.20
2019-01-06T19:21:45.728Z,70.40
2019-01-06T19:24:31.686Z,70.30
2019-01-06T19:27:22.098Z,70.60
2019-01-06T19:30:05.819Z,70.60
2019-01-06T19:32:52.002Z,70.60
2019-01-06T19:35:48.273Z,70.40
2019-01-06T19:38:34.410Z,70.40
2019-01-06T19:41:18.596Z,70.60
2019-01-06T19:44:06.451Z,70.20
2019-01-06T19:46:56.833Z,70.30
2019-01-06T19:49:53.089Z,70.10
2019-01-06T19:52:55.628Z,69.80
2019-01-06T19:55:39.429Z,69.70
2019-01-06T19:58:25.438Z,69.90
2019-01-06T20:01:11.358Z,69.90
2019-01-06T20:04:02.248Z,69.90
2019-01-06T20:06:58.861Z,70.00
2019-01-06T20:09:44.048Z,70.20
2019-01-06T20:12:43.525Z,70.30
2019-01-06T20:15:23.005Z,70.60
2019-01-06T20:18:16.110Z,70.70
2019-01-06T20:21:02.332Z,70.90
2019-01-06T20:24:01.798Z,70.80
2019-01-06T20:26:48.020Z,70.90
2019-01-06T20:29:35.850Z,70.70
2019-01-06T20:32:22.184Z,70.50
2019-01-06T20:35:08.029Z,70.60
2019-01-06T20:37:53.641Z,70.80
2019-01-06T20:40:56.461Z,70.50
2019-01-06T20:43:46.656Z,71.40
2019-01-06T20:46:32.501Z,71.00
2019-01-06T20:49:37.905Z,70.90
2019-01-06T20:52:24.202Z,71.30
2019-01-06T20:55:11.727Z,71.40
2019-01-06T20:57:59.177Z,71.90
2019-01-06T21:00:52.604Z,72.20
2019-01-06T21:03:46.068Z,72.70
2019-01-06T21:06:39.618Z,73.70
2019-01-06T21:09:45.564Z,74.30
2019-01-06T21:12:35.985Z,74.60
2019-01-06T21:15:37.825Z,73.50
2019-01-06T21:18:25.332Z,73.60
2019-01-06T21:21:18.470Z,73.50
2019-01-06T21:24:18.218Z,73.60
2019-01-06T21:27:11.254Z,73.80
2019-01-06T21:30:01.430Z,73.60
2019-01-06T21:32:47.480Z,73.30
2019-01-06T21:35:33.609Z,73.50
2019-01-06T21:38:39.042Z,73.40
2019-01-06T21:41:25.745Z,73.50
2019-01-06T21:44:16.309Z,74.40
2019-01-06T21:47:02.693Z,74.50
2019-01-06T21:49:58.949Z,75.30
2019-01-06T21:52:38.789Z,75.60
2019-01-06T21:55:38.537Z,75.30
2019-01-06T21:58:24.661Z,74.90
2019-01-06T22:01:14.888Z,75.50
2019-01-06T22:04:11.493Z,75.30
2019-01-06T22:07:07.628Z,74.90
2019-01-06T22:10:10.309Z,74.80
2019-01-06T22:13:03.453Z,75.50
2019-01-06T22:15:47.232Z,75.70
2019-01-06T22:18:37.674Z,75.70
2019-01-06T22:21:16.753Z,76.10
2019-01-06T22:24:16.052Z,75.70
2019-01-06T22:27:01.937Z,75.90
2019-01-06T22:29:48.226Z,76.70
2019-01-06T22:32:34.217Z,77.60
2019-01-06T22:35:20.070Z,77.80
2019-01-06T22:38:06.188Z,77.20
2019-01-06T22:41:01.354Z,77.50
2019-01-06T22:44:00.801Z,77.00
2019-01-06T22:46:57.261Z,77.00
2019-01-06T22:49:44.782Z,77.40
2019-01-06T22:52:36.844Z,77.50
2019-01-06T22:55:18.607Z,78.20
2019-01-06T22:58:04.517Z,77.80
2019-01-06T23:00:51.040Z,77.70
2019-01-06T23:03:36.461Z,77.20
2019-01-06T23:06:22.578Z,76.80
2019-01-06T23:09:06.093Z,76.60
2019-01-06T23:11:51.890Z,76.50
2019-01-06T23:14:51.370Z,76.20
2019-01-06T23:17:41.919Z,76.70
2019-01-06T23:20:35.317Z,75.70
2019-01-06T23:23:21.460Z,76.30
2019-01-06T23:26:08.921Z,75.50
2019-01-06T23:29:08.569Z,75.40
2019-01-06T23:32:01.945Z,75.50
2019-01-06T23:35:04.725Z,75.70
2019-01-06T23:37:53.162Z,75.40
2019-01-06T23:40:58.929Z,75.90
2019-01-06T23:43:49.137Z,76.10
2019-01-06T23:46:39.549Z,75.70
2019-01-06T23:49:27.432Z,75.70
2019-01-06T23:52:15.417Z,76.20
2019-01-06T23:55:01.291Z,76.10
2019-01-06T23:57:51.696Z,76.30
